Adco, Washington
Current Conditions -  °F | °C
As of 6:01 PM on Thursday 18 Dec 2014 (Local Time) from KEPH Reporting Station
Haze Haze  
Wind Chill: 33°   Ceiling: 3800
Heat Index: 38°   Visibility: 5mi
Dew Point: 37°   Wind: 6mph
Humidity: 97%   Direction: 350°N
Pressure: 29.94"   Gusts: NA
Location:  47.4314°N, 119.485°W
Report Text: KEPH 190201Z AUTO 35005KT 5SM BR SCT014 BKN038 OVC075 03/03 A2994 RMK AO2 RAE00 P0000 T00330028
Loading
Personal Weather Stations






























Interactive Weather Map New forecast layout! Learn more

10-Day Weather Forecast

Advertisements
Track Severe Weather on mobile